Time;durP1;ratioP1;P1;durP2;ratioP2;P2;SDS_P1;SDS_P2;PMS_P1;PMS_P2;Temp;Humidity;BMP_temperature;BMP_pressure;BME280_temperature;BME280_humidity;BME280_pressure;Samples;Min_cycle;Max_cycle;Signal;HPM_P1;HPM_P2
2022/09/30 00:00:16;;;;;;;5.65;3.72;;;;;;;22.24;51.95;99208.72;5112248;28;20474;-37
2022/09/30 00:02:42;;;;;;;4.80;3.28;;;;;;;22.14;52.43;99209.66;5112148;28;20471;-37
2022/09/30 00:05:07;;;;;;;3.70;2.90;;;;;;;22.17;52.03;99213.69;5111776;28;20024;-37
2022/09/30 00:07:33;;;;;;;5.55;3.75;;;;;;;22.15;52.40;99222.09;5110623;28;20034;-37
2022/09/30 00:09:58;;;;;;;4.82;3.40;;;;;;;21.90;53.35;99228.66;5111906;28;20051;-37
2022/09/30 00:12:26;;;;;;;5.35;3.25;;;;;;;21.64;53.93;99225.47;5111799;28;20016;-37
2022/09/30 00:14:51;;;;;;;4.60;3.40;;;;;;;21.72;53.70;99221.31;5111945;28;20031;-37
2022/09/30 00:17:17;;;;;;;5.15;3.75;;;;;;;21.76;53.50;99231.28;5111545;28;20023;-37
2022/09/30 00:19:42;;;;;;;5.75;3.60;;;;;;;21.71;53.53;99225.13;5111775;28;20036;-37
2022/09/30 00:22:08;;;;;;;5.55;3.67;;;;;;;21.89;53.56;99229.75;5110368;28;20051;-37
2022/09/30 00:24:33;;;;;;;6.55;3.70;;;;;;;21.91;53.20;99232.19;5111625;28;20095;-37
2022/09/30 00:26:59;;;;;;;4.60;3.60;;;;;;;21.92;53.31;99228.38;5112024;28;20472;-37
2022/09/30 00:29:24;;;;;;;6.07;3.55;;;;;;;21.90;53.32;99236.00;5111550;28;20077;-36
2022/09/30 00:31:50;;;;;;;4.03;3.17;;;;;;;21.81;53.63;99223.09;5111589;28;20020;-36
2022/09/30 00:34:18;;;;;;;5.15;3.30;;;;;;;21.84;53.74;99227.94;5111358;28;20098;-36
2022/09/30 00:36:45;;;;;;;5.00;3.20;;;;;;;21.81;53.81;99230.41;5111645;28;20043;-36
2022/09/30 00:39:17;;;;;;;5.50;3.40;;;;;;;21.68;54.27;99237.31;5111461;28;20027;-36
2022/09/30 00:41:44;;;;;;;5.25;3.22;;;;;;;21.44;55.14;99243.56;5111945;28;20031;-36
2022/09/30 00:44:46;;;;;;;3.72;3.22;;;;;;;20.93;56.27;99237.81;5111466;28;20089;-36
2022/09/30 00:47:27;;;;;;;5.28;3.40;;;;;;;20.77;57.27;99245.25;5112010;28;20052;-36
2022/09/30 00:49:56;;;;;;;6.28;3.90;;;;;;;21.06;55.75;99251.50;5112035;28;20468;-36
2022/09/30 00:52:22;;;;;;;5.00;3.33;;;;;;;21.19;55.71;99249.19;5111894;28;20046;-36
2022/09/30 00:54:50;;;;;;;4.00;3.38;;;;;;;21.35;55.58;99247.97;5111826;28;20123;-36
2022/09/30 00:57:15;;;;;;;4.72;3.22;;;;;;;21.44;55.15;99250.88;5112126;28;20020;-37
2022/09/30 00:59:46;;;;;;;6.32;3.60;;;;;;;21.50;55.30;99246.22;5111784;28;20023;-36
2022/09/30 01:02:13;;;;;;;5.70;3.50;;;;;;;21.56;54.88;99255.91;5111560;28;20479;-36
2022/09/30 01:04:41;;;;;;;5.22;3.63;;;;;;;21.43;55.41;99258.16;5111548;28;20046;-37
2022/09/30 01:07:08;;;;;;;7.22;3.33;;;;;;;21.40;55.31;99245.22;5111672;28;20668;-37
2022/09/30 01:09:39;;;;;;;4.80;3.80;;;;;;;21.43;55.71;99255.44;5111169;28;20028;-36
2022/09/30 01:12:19;;;;;;;5.53;3.63;;;;;;;21.52;55.53;99257.56;5111608;28;20114;-37
2022/09/30 01:14:46;;;;;;;5.82;3.33;;;;;;;21.33;55.53;99263.69;5111798;28;20035;-37
2022/09/30 01:17:27;;;;;;;4.72;3.47;;;;;;;21.12;56.77;99270.38;5111335;28;20035;-36
2022/09/30 01:20:17;;;;;;;3.90;3.35;;;;;;;21.06;56.54;99265.00;5111071;28;20063;-37
2022/09/30 01:23:09;;;;;;;5.00;3.80;;;;;;;21.15;56.33;99277.91;5111427;28;20439;-37
2022/09/30 01:25:49;;;;;;;4.35;3.33;;;;;;;21.06;56.83;99278.53;5111400;28;20038;-37
2022/09/30 01:28:23;;;;;;;;;;;;;;;21.36;56.21;99273.13;5111776;28;20059;-37
2022/09/30 01:31:21;;;;;;;5.47;3.80;;;;;;;21.24;56.23;99276.22;5111215;28;19976;-37
2022/09/30 01:34:07;;;;;;;6.93;3.90;;;;;;;21.17;56.32;99264.91;5110573;28;20514;-37
2022/09/30 01:36:47;;;;;;;5.15;3.75;;;;;;;21.24;55.99;99268.88;5110811;28;20023;-37
2022/09/30 01:39:18;;;;;;;6.18;4.10;;;;;;;21.29;55.73;99266.16;5110676;28;20031;-36
2022/09/30 01:42:22;;;;;;;6.15;4.35;;;;;;;21.32;55.81;99262.06;5110618;28;20537;-36
2022/09/30 01:44:54;;;;;;;5.55;3.80;;;;;;;21.24;55.64;99249.94;5099449;28;20485;-36
2022/09/30 01:47:39;;;;;;;5.50;3.92;;;;;;;21.19;55.89;99255.44;5110838;28;20028;-36
2022/09/30 01:50:10;;;;;;;5.10;3.97;;;;;;;21.18;55.93;99263.84;5109294;28;20039;-37
2022/09/30 01:52:42;;;;;;;7.78;4.03;;;;;;;21.29;56.05;99271.56;5110398;28;20376;-37
2022/09/30 01:55:30;;;;;;;4.90;4.10;;;;;;;21.27;55.82;99270.25;5112868;28;20023;-37
2022/09/30 01:58:11;;;;;;;5.22;4.03;;;;;;;21.11;56.56;99276.88;5114743;28;20504;-37
2022/09/30 02:00:41;;;;;;;9.25;3.80;;;;;;;21.00;56.44;99274.28;5115134;28;20111;-36
2022/09/30 02:03:26;;;;;;;7.32;4.35;;;;;;;20.89;56.61;99268.13;5115054;28;20031;-37
2022/09/30 02:06:05;;;;;;;8.70;4.50;;;;;;;20.91;56.46;99269.75;5115025;28;20032;-36
2022/09/30 02:08:43;;;;;;;6.60;3.97;;;;;;;20.92;56.73;99264.03;5115094;28;20356;-36
2022/09/30 02:11:24;;;;;;;6.22;4.30;;;;;;;20.94;56.74;99264.56;5114574;28;20036;-36
2022/09/30 02:13:59;;;;;;;;;;;;;;;21.13;55.92;99269.28;5115567;28;20028;-37
2022/09/30 02:16:34;;;;;;;5.95;4.45;;;;;;;20.84;56.64;99267.38;5114991;28;20010;-36
2022/09/30 02:19:10;;;;;;;9.07;4.30;;;;;;;20.81;56.78;99274.16;5114553;28;20042;-36
2022/09/30 02:21:41;;;;;;;8.40;4.25;;;;;;;20.82;57.19;99286.56;5114523;27;20048;-36
2022/09/30 02:24:11;;;;;;;6.93;4.10;;;;;;;20.80;56.94;99279.84;5114953;28;20019;-36
2022/09/30 02:26:40;;;;;;;7.30;4.30;;;;;;;20.75;57.27;99277.97;5114418;28;20078;-37
2022/09/30 02:29:27;;;;;;;8.65;4.13;;;;;;;20.78;56.75;99280.13;5114845;28;20104;-36
2022/09/30 02:31:59;;;;;;;9.68;4.68;;;;;;;20.67;56.95;99279.38;5114520;28;20087;-36
2022/09/30 02:34:31;;;;;;;8.60;4.43;;;;;;;20.70;57.08;99270.72;5114491;28;20521;-37
2022/09/30 02:36:56;;;;;;;8.13;4.43;;;;;;;20.76;56.48;99268.78;5114477;28;20031;-36
2022/09/30 02:39:33;;;;;;;9.95;4.75;;;;;;;20.66;56.71;99275.06;5114069;28;20039;-36
2022/09/30 02:42:04;;;;;;;8.45;4.25;;;;;;;20.65;56.73;99286.97;5111990;28;20473;-36
2022/09/30 02:44:30;;;;;;;10.32;4.38;;;;;;;20.50;56.78;99276.22;5110408;28;20438;-36
2022/09/30 02:47:33;;;;;;;10.10;4.90;;;;;;;20.45;57.20;99281.69;5114519;28;20020;-36
2022/09/30 02:50:06;;;;;;;7.60;4.63;;;;;;;20.54;57.43;99289.97;5102702;28;20024;-36
2022/09/30 02:52:44;;;;;;;8.98;4.47;;;;;;;20.52;57.07;99279.44;5114123;28;20062;-36
2022/09/30 02:55:25;;;;;;;10.35;4.82;;;;;;;20.54;56.80;99290.78;5105540;28;20072;-36
2022/09/30 02:58:09;;;;;;;8.73;4.30;;;;;;;20.56;57.19;99287.81;5108997;28;20130;-36
2022/09/30 03:00:34;;;;;;;9.45;4.70;;;;;;;20.55;56.76;99292.41;5106906;28;20016;-36
2022/09/30 03:03:12;;;;;;;10.27;5.03;;;;;;;20.41;57.72;99288.72;5113376;28;20376;-36
2022/09/30 03:05:38;;;;;;;26.80;17.80;;;;;;;20.33;57.40;99290.09;5110167;28;20023;-36
2022/09/30 03:08:03;;;;;;;23.52;15.30;;;;;;;20.29;57.50;99284.44;5113194;28;20019;-36
2022/09/30 03:10:30;;;;;;;72.90;50.53;;;;;;;20.28;56.97;99273.94;5113589;28;20389;-36
2022/09/30 03:13:21;;;;;;;62.08;36.00;;;;;;;20.34;57.33;99297.13;5110716;28;20554;-36
2022/09/30 03:15:55;;;;;;;10.95;7.18;;;;;;;19.96;58.71;99301.38;5089526;28;20027;-35
2022/09/30 03:18:44;;;;;;;6.30;4.68;;;;;;;20.01;59.04;99306.72;5113888;28;20047;-35
2022/09/30 03:21:37;;;;;;;8.18;4.68;;;;;;;19.91;59.30;99308.41;5113734;28;20572;-36
2022/09/30 03:24:35;;;;;;;9.55;5.03;;;;;;;19.75;59.90;99301.44;5113717;28;20047;-36
2022/09/30 03:27:06;;;;;;;7.43;4.85;;;;;;;19.66;60.39;99298.44;5113357;28;20024;-44
2022/09/30 03:29:52;;;;;;;10.50;4.57;;;;;;;19.73;60.20;99301.69;5113563;28;20027;-43
2022/09/30 03:32:23;;;;;;;8.98;4.75;;;;;;;19.57;60.92;99304.69;5113515;28;20023;-44
2022/09/30 03:35:18;;;;;;;6.40;4.70;;;;;;;19.55;61.24;99304.94;5113480;28;20024;-44
2022/09/30 03:37:52;;;;;;;8.90;4.60;;;;;;;19.67;60.66;99321.66;5113400;28;20024;-43
2022/09/30 03:40:42;;;;;;;7.07;4.85;;;;;;;19.75;60.63;99333.03;5111503;28;20301;-36
2022/09/30 03:43:22;;;;;;;7.85;4.70;;;;;;;19.78;60.58;99343.25;5113116;28;20458;-37
2022/09/30 03:46:26;;;;;;;8.50;4.82;;;;;;;19.64;60.88;99348.41;5113186;28;20026;-36
2022/09/30 03:49:00;;;;;;;8.60;5.85;;;;;;;19.51;60.93;99336.25;5107893;28;20038;-37
2022/09/30 03:51:28;;;;;;;6.72;4.85;;;;;;;19.49;61.59;99327.63;5110068;28;20032;-36
2022/09/30 03:53:54;;;;;;;6.65;4.40;;;;;;;19.43;61.31;99321.44;5112315;28;20031;-37
2022/09/30 03:56:28;;;;;;;8.27;4.38;;;;;;;19.06;62.88;99311.75;5111608;28;20019;-37
2022/09/30 03:58:55;;;;;;;6.80;4.18;;;;;;;19.48;61.38;99326.03;5111652;28;20031;-36
2022/09/30 04:01:22;;;;;;;6.35;4.38;;;;;;;18.74;63.43;99326.25;5111276;28;20054;-38
2022/09/30 04:03:51;;;;;;;5.25;4.25;;;;;;;18.58;64.65;99315.72;5111388;28;20027;-36
2022/09/30 04:06:18;;;;;;;6.72;4.28;;;;;;;18.96;63.76;99317.13;5111503;28;20107;-36
2022/09/30 04:08:43;;;;;;;8.23;4.63;;;;;;;19.31;62.38;99327.13;5111352;28;20643;-37
2022/09/30 04:11:09;;;;;;;9.90;4.40;;;;;;;19.50;61.68;99331.97;5111842;28;20024;-36
2022/09/30 04:13:35;;;;;;;9.50;8.00;;;;;;;19.61;61.10;99330.88;5111730;28;20084;-37
2022/09/30 04:16:00;;;;;;;15.90;12.73;;;;;;;19.70;60.54;99326.53;5111562;28;20027;-36
2022/09/30 04:18:26;;;;;;;10.60;6.60;;;;;;;19.72;60.71;99334.38;5111967;28;20055;-37
2022/09/30 04:20:52;;;;;;;5.63;4.22;;;;;;;19.73;60.86;99339.50;5111758;28;20072;-37
2022/09/30 04:23:17;;;;;;;6.97;4.55;;;;;;;19.72;60.85;99347.88;5112304;28;20015;-36
2022/09/30 04:25:42;;;;;;;9.68;4.75;;;;;;;19.51;61.13;99361.38;5112191;28;20023;-36
2022/09/30 04:28:08;;;;;;;9.18;4.80;;;;;;;19.47;61.40;99354.88;5112112;28;20099;-37
2022/09/30 04:30:33;;;;;;;14.57;4.80;;;;;;;19.60;61.28;99364.31;5111741;28;20023;-36
2022/09/30 04:32:59;;;;;;;10.20;4.72;;;;;;;19.84;64.17;99364.59;5111598;28;20511;-37
2022/09/30 04:35:26;;;;;;;11.00;5.13;;;;;;;19.94;60.69;99365.66;5102735;27;20019;-37
2022/09/30 04:37:52;;;;;;;6.38;4.30;;;;;;;20.03;60.16;99355.88;5111432;28;20019;-37
2022/09/30 04:40:17;;;;;;;9.02;4.60;;;;;;;20.04;60.22;99357.50;5110634;28;20356;-36
2022/09/30 04:42:43;;;;;;;9.20;4.55;;;;;;;20.15;59.91;99359.09;5110510;28;20156;-36
2022/09/30 04:45:10;;;;;;;11.65;5.05;;;;;;;20.18;59.91;99357.72;5108473;28;20031;-37
2022/09/30 04:47:35;;;;;;;9.52;5.00;;;;;;;20.39;59.72;99348.44;5109822;28;20103;-37
2022/09/30 04:50:00;;;;;;;12.35;5.28;;;;;;;20.53;59.24;99354.06;5109542;28;20167;-36
2022/09/30 04:52:26;;;;;;;19.75;12.68;;;;;;;20.61;58.65;99364.28;5109842;28;20066;-37
2022/09/30 04:54:52;;;;;;;12.27;6.85;;;;;;;20.64;58.86;99374.56;5109677;28;20019;-37
2022/09/30 04:57:18;;;;;;;12.93;5.53;;;;;;;20.78;58.11;99374.75;5109304;28;20020;-36
2022/09/30 04:59:44;;;;;;;7.45;4.50;;;;;;;21.03;57.60;99392.69;5089367;28;20020;-36
2022/09/30 05:02:09;;;;;;;7.43;4.88;;;;;;;21.39;56.73;99405.16;5089529;28;20024;-37
2022/09/30 05:04:35;;;;;;;9.60;5.63;;;;;;;21.64;56.21;99407.66;5089862;28;20030;-37
2022/09/30 05:07:02;;;;;;;16.70;5.90;;;;;;;21.76;54.54;99411.91;5088767;28;20063;-37
2022/09/30 05:09:28;;;;;;;12.57;5.07;;;;;;;21.69;54.78;99411.44;5089473;28;20043;-37
2022/09/30 05:11:53;;;;;;;8.50;5.05;;;;;;;21.80;55.33;99419.19;5087976;28;20078;-36
2022/09/30 05:14:19;;;;;;;10.88;5.15;;;;;;;22.14;54.13;99426.44;5089824;28;20067;-36
2022/09/30 05:16:44;;;;;;;68.40;42.65;;;;;;;22.18;53.58;99423.91;5095750;28;20347;-36
2022/09/30 05:19:09;;;;;;;13.85;6.60;;;;;;;22.24;53.05;99422.78;5110426;28;20148;-37
2022/09/30 05:21:35;;;;;;;16.73;5.45;;;;;;;22.57;52.34;99428.38;5110455;28;20139;-37
2022/09/30 05:24:01;;;;;;;8.90;4.75;;;;;;;22.96;51.52;99441.69;5110145;28;20114;-37
2022/09/30 05:26:27;;;;;;;9.77;5.55;;;;;;;23.29;50.71;99460.78;5110320;28;20098;-35
2022/09/30 05:28:52;;;;;;;12.30;5.10;;;;;;;23.66;49.19;99458.31;5109476;28;20554;-37
2022/09/30 05:31:19;;;;;;;14.88;5.28;;;;;;;23.95;48.53;99452.66;5110143;28;20147;-37
2022/09/30 05:33:45;;;;;;;10.75;6.18;;;;;;;24.38;47.94;99438.81;5110364;28;20028;-36
2022/09/30 05:36:14;;;;;;;13.88;4.82;;;;;;;24.78;46.37;99436.38;5110096;28;20027;-36
2022/09/30 05:38:40;;;;;;;10.60;5.10;;;;;;;24.98;45.78;99433.22;5110321;28;20061;-37
2022/09/30 05:41:10;;;;;;;11.98;4.78;;;;;;;25.22;45.60;99436.75;5109032;28;20312;-37
2022/09/30 05:43:38;;;;;;;12.27;4.60;;;;;;;25.51;44.93;99437.19;5110267;28;20108;-37
2022/09/30 05:46:04;;;;;;;10.23;4.15;;;;;;;25.64;44.33;99435.47;5110582;28;20539;-37
2022/09/30 05:48:29;;;;;;;6.72;3.88;;;;;;;26.09;43.53;99440.06;5110518;28;20024;-37
2022/09/30 05:50:56;;;;;;;5.50;3.60;;;;;;;26.61;42.34;99451.19;5110448;28;20426;-37
2022/09/30 05:53:22;;;;;;;7.20;3.90;;;;;;;26.75;42.03;99442.06;5110515;28;20020;-37
2022/09/30 05:55:49;;;;;;;5.28;3.75;;;;;;;26.88;42.07;99441.94;5109917;28;20130;-35
2022/09/30 05:58:15;;;;;;;4.47;3.25;;;;;;;27.23;41.26;99441.16;5110170;28;20024;-36
2022/09/30 06:00:42;;;;;;;12.05;5.20;;;;;;;27.52;39.88;99445.16;5109711;28;20100;-36
2022/09/30 06:03:07;;;;;;;9.10;5.55;;;;;;;27.35;40.14;99451.44;5110172;28;20016;-37
2022/09/30 06:05:33;;;;;;;12.52;5.45;;;;;;;27.41;40.00;99452.88;5110213;28;20026;-37
2022/09/30 06:07:59;;;;;;;9.88;5.60;;;;;;;27.50;40.42;99459.13;5110329;28;20456;-37
2022/09/30 06:10:25;;;;;;;16.08;5.90;;;;;;;27.98;39.26;99446.34;5109744;28;20169;-37
2022/09/30 06:12:51;;;;;;;12.23;6.97;;;;;;;28.55;37.72;99439.69;5109778;28;20470;-36
2022/09/30 06:15:16;;;;;;;11.82;6.60;;;;;;;28.52;38.09;99449.38;5109776;28;20490;-37
2022/09/30 06:17:42;;;;;;;16.60;5.93;;;;;;;28.71;37.60;99439.91;5109857;28;20024;-37
2022/09/30 06:20:10;;;;;;;11.32;5.85;;;;;;;29.05;37.10;99460.75;5109693;28;20464;-37
2022/09/30 06:22:36;;;;;;;13.90;5.87;;;;;;;29.02;37.16;99464.97;5109992;28;20031;-37
2022/09/30 06:25:04;;;;;;;11.85;5.50;;;;;;;28.95;36.99;99469.38;5109719;28;20088;-37
2022/09/30 06:27:32;;;;;;;10.13;4.97;;;;;;;28.85;38.02;99479.59;5109947;28;20028;-37
2022/09/30 06:29:57;;;;;;;8.20;4.28;;;;;;;29.37;36.83;99483.09;5108833;28;20031;-37
2022/09/30 06:32:24;;;;;;;7.55;4.13;;;;;;;29.92;35.98;99489.38;5109485;28;20027;-37
2022/09/30 06:34:50;;;;;;;7.88;3.90;;;;;;;30.15;35.38;99498.00;5109605;28;20031;-37
2022/09/30 06:37:17;;;;;;;9.93;4.10;;;;;;;30.26;35.56;99493.66;5110213;28;20031;-37
2022/09/30 06:39:43;;;;;;;6.38;3.60;;;;;;;30.73;34.40;99495.16;5109900;28;20077;-37
2022/09/30 06:42:10;;;;;;;11.20;4.72;;;;;;;31.17;33.86;99507.16;5112016;28;20436;-37
2022/09/30 06:44:35;;;;;;;8.95;3.92;;;;;;;31.34;33.68;99510.78;5113724;28;20088;-37
2022/09/30 06:47:01;;;;;;;11.85;4.22;;;;;;;31.59;33.35;99514.25;5113268;28;20024;-36
2022/09/30 06:49:27;;;;;;;11.43;4.40;;;;;;;31.91;32.52;99508.81;5113435;27;20076;-37
2022/09/30 06:51:52;;;;;;;7.13;3.70;;;;;;;32.19;31.97;99505.22;5113311;28;20066;-38
2022/09/30 06:54:19;;;;;;;12.25;4.28;;;;;;;32.23;31.88;99495.91;5113175;28;20024;-35
2022/09/30 06:56:48;;;;;;;9.50;3.85;;;;;;;32.44;31.24;99489.31;5113159;28;20023;-37
2022/09/30 06:59:15;;;;;;;9.00;5.03;;;;;;;32.36;31.46;99496.63;5113297;28;20470;-37
2022/09/30 07:01:41;;;;;;;10.15;4.00;;;;;;;32.40;31.44;99503.00;5113375;28;20024;-37
2022/09/30 07:04:09;;;;;;;7.95;3.70;;;;;;;32.77;31.16;99491.72;5113132;28;20034;-37
2022/09/30 07:06:35;;;;;;;8.77;3.80;;;;;;;33.23;30.29;99494.69;5113265;28;20427;-37
2022/09/30 07:09:00;;;;;;;11.80;6.10;;;;;;;32.36;31.18;99504.09;5112824;28;20034;-36
2022/09/30 07:11:26;;;;;;;12.65;5.65;;;;;;;32.14;31.69;99514.56;5112718;28;20020;-37
2022/09/30 07:13:51;;;;;;;11.02;4.03;;;;;;;32.69;30.57;99525.75;5112585;28;20020;-37
2022/09/30 07:16:19;;;;;;;7.38;3.35;;;;;;;33.15;29.91;99522.47;5109150;28;20011;-37
2022/09/30 07:18:45;;;;;;;7.40;3.28;;;;;;;33.35;29.65;99526.06;5108758;28;20120;-36
2022/09/30 07:21:14;;;;;;;5.22;3.22;;;;;;;33.66;29.12;99527.88;5093019;28;20101;-36
2022/09/30 07:23:46;;;;;;;5.75;2.97;;;;;;;33.06;30.10;99537.22;5092343;28;20044;-37
2022/09/30 07:26:13;;;;;;;6.38;3.13;;;;;;;33.48;29.27;99524.75;5091561;28;20028;-37
2022/09/30 07:28:39;;;;;;;5.38;2.85;;;;;;;33.85;28.67;99525.09;5092470;28;20024;-36
2022/09/30 07:31:16;;;;;;;11.93;3.10;;;;;;;33.98;28.72;99531.22;5092020;28;20038;-36
2022/09/30 07:33:42;;;;;;;7.38;2.80;;;;;;;34.04;28.57;99531.72;5092607;28;20034;-37
2022/09/30 07:36:09;;;;;;;7.65;3.00;;;;;;;34.27;28.59;99531.75;5093409;28;20078;-38
2022/09/30 07:38:39;;;;;;;4.25;2.78;;;;;;;34.47;27.61;99518.69;5092246;28;20028;-38
2022/09/30 07:41:17;;;;;;;4.30;2.80;;;;;;;34.71;27.54;99536.03;5101926;28;20026;-37
2022/09/30 07:43:45;;;;;;;3.67;2.90;;;;;;;34.82;27.12;99535.06;5112502;28;20111;-37
2022/09/30 07:46:12;;;;;;;7.20;2.95;;;;;;;35.10;27.27;99531.09;5110779;28;20031;-38
2022/09/30 07:48:43;;;;;;;6.10;2.97;;;;;;;35.08;26.94;99541.72;5111490;28;20051;-38
2022/09/30 07:51:15;;;;;;;3.90;2.70;;;;;;;35.13;27.08;99552.47;5111736;28;20031;-37
2022/09/30 07:53:42;;;;;;;8.40;3.13;;;;;;;35.03;27.17;99545.63;5110340;28;20020;-39
2022/09/30 07:56:08;;;;;;;4.85;2.65;;;;;;;34.58;27.37;99550.03;5112720;27;20122;-36
2022/09/30 07:58:34;;;;;;;5.75;2.75;;;;;;;34.61;27.56;99541.00;5112478;28;20030;-37
2022/09/30 08:00:59;;;;;;;6.00;2.90;;;;;;;34.73;27.40;99553.03;5112008;28;20020;-38
2022/09/30 08:03:25;;;;;;;5.50;2.60;;;;;;;34.28;27.50;99547.97;5112362;28;20023;-37
2022/09/30 08:05:50;;;;;;;5.65;2.90;;;;;;;34.53;27.47;99550.34;5112121;28;20023;-37
2022/09/30 08:08:16;;;;;;;5.03;2.78;;;;;;;34.74;27.47;99555.44;5111913;28;20029;-35
2022/09/30 08:10:41;;;;;;;7.80;3.05;;;;;;;34.70;27.52;99562.09;5111963;28;20047;-38
2022/09/30 08:13:08;;;;;;;6.38;3.10;;;;;;;33.94;28.54;99559.94;5112175;28;20098;-38
2022/09/30 08:15:34;;;;;;;3.95;2.80;;;;;;;34.11;28.12;99555.91;5111580;28;20521;-37
2022/09/30 08:17:59;;;;;;;7.35;2.90;;;;;;;34.52;27.95;99561.75;5112052;28;20055;-36
2022/09/30 08:20:24;;;;;;;4.00;2.55;;;;;;;34.38;27.96;99565.09;5111291;28;20153;-37
2022/09/30 08:22:57;;;;;;;6.50;2.90;;;;;;;34.57;27.53;99570.53;5111448;28;20058;-37
2022/09/30 08:25:23;;;;;;;8.05;2.80;;;;;;;34.28;27.73;99570.06;5111492;28;20486;-38
2022/09/30 08:27:49;;;;;;;5.90;2.90;;;;;;;34.04;27.90;99570.38;5111954;28;20019;-38
2022/09/30 08:30:15;;;;;;;5.53;2.80;;;;;;;34.01;27.90;99569.16;5111795;28;20027;-38
2022/09/30 08:32:40;;;;;;;4.43;2.60;;;;;;;34.43;27.28;99573.06;5111687;28;20460;-35
2022/09/30 08:35:06;;;;;;;4.85;2.50;;;;;;;34.14;27.40;99564.28;5111587;28;20115;-38
2022/09/30 08:37:32;;;;;;;5.13;2.72;;;;;;;34.41;27.29;99561.59;5111602;28;20566;-38
2022/09/30 08:39:57;;;;;;;7.10;2.80;;;;;;;34.65;27.16;99566.75;5111718;28;20102;-38
2022/09/30 08:42:31;;;;;;;5.75;2.92;;;;;;;34.30;27.28;99560.63;5111301;28;20035;-37
2022/09/30 08:45:12;;;;;;;3.42;2.60;;;;;;;34.17;27.94;99549.75;5111526;28;20026;-38
2022/09/30 08:47:48;;;;;;;7.25;2.70;;;;;;;33.64;27.84;99555.03;5111684;28;20039;-36
2022/09/30 08:50:44;;;;;;;5.65;2.72;;;;;;;33.91;28.18;99553.19;5111400;28;20034;-37
2022/09/30 08:53:40;;;;;;;5.50;2.85;;;;;;;33.85;28.00;99554.63;5111249;28;20031;-36
2022/09/30 08:56:07;;;;;;;6.25;2.60;;;;;;;34.19;27.34;99563.19;5109399;28;20046;-37
2022/09/30 08:58:36;;;;;;;4.93;2.63;;;;;;;34.16;27.46;99561.19;5110753;28;20027;-37
2022/09/30 09:01:14;;;;;;;4.53;2.50;;;;;;;34.29;27.03;99562.59;5110975;28;20015;-36
2022/09/30 09:03:40;;;;;;;3.40;2.42;;;;;;;34.42;27.19;99560.41;5110203;28;20043;-36
2022/09/30 09:06:29;;;;;;;6.20;3.10;;;;;;;33.63;27.92;99578.25;5110516;28;20350;-37
2022/09/30 09:09:07;;;;;;;8.00;2.78;;;;;;;34.19;28.00;99571.47;5110127;28;20049;-38
2022/09/30 09:11:57;;;;;;;6.03;2.40;;;;;;;34.22;27.84;99574.28;5110567;28;20499;-37
2022/09/30 09:14:38;;;;;;;5.13;2.22;;;;;;;34.69;26.57;99574.31;5110848;28;20023;-37
2022/09/30 09:17:19;;;;;;;3.72;2.55;;;;;;;35.01;26.59;99577.56;5110557;28;20027;-37
2022/09/30 09:20:15;;;;;;;4.55;2.58;;;;;;;34.80;26.57;99587.09;5110356;28;20036;-38
2022/09/30 09:22:43;;;;;;;8.73;2.92;;;;;;;34.49;26.45;99582.66;5101810;28;20028;-38
2022/09/30 09:25:14;;;;;;;4.47;2.40;;;;;;;34.59;26.25;99582.00;5110374;28;20184;-37
2022/09/30 09:28:18;;;;;;;5.53;2.67;;;;;;;34.82;25.89;99578.47;5110306;28;20030;-37
2022/09/30 09:30:51;;;;;;;6.63;2.90;;;;;;;34.89;26.21;99572.25;5027631;28;20037;-37
2022/09/30 09:33:21;;;;;;;5.63;2.70;;;;;;;33.84;27.23;99580.66;5026929;28;20063;-36
2022/09/30 09:36:19;;;;;;;2.75;2.45;;;;;;;32.76;28.37;99582.97;5071694;28;20339;-37
2022/09/30 09:38:54;;;;;;;5.38;2.83;;;;;;;32.62;29.74;99580.69;5110513;28;20019;-37
2022/09/30 09:41:39;;;;;;;4.43;2.58;;;;;;;33.21;28.72;99588.00;5110166;28;20127;-37
2022/09/30 09:44:16;;;;;;;5.82;2.55;;;;;;;33.36;28.12;99588.28;5110785;28;20035;-37
2022/09/30 09:47:12;;;;;;;4.53;2.45;;;;;;;33.79;27.64;99589.22;5109841;28;20026;-36
2022/09/30 09:49:42;;;;;;;7.95;2.80;;;;;;;33.97;27.59;99581.31;5109905;28;20151;-37
2022/09/30 09:52:13;;;;;;;5.55;2.90;;;;;;;33.92;27.66;99578.84;5110163;28;20024;-37
2022/09/30 09:54:44;;;;;;;6.35;2.80;;;;;;;34.05;27.15;99578.28;5109862;28;20080;-37
2022/09/30 09:57:16;;;;;;;4.05;2.47;;;;;;;34.30;27.20;99560.63;5110284;28;20474;-38
2022/09/30 10:01:04;;;;;;;4.40;2.70;;;;;;;34.69;27.13;99574.31;5110463;28;20023;-37
2022/09/30 10:03:07;;;;;;;6.18;2.70;;;;;;;35.02;25.98;99574.44;5109180;28;20521;-37
2022/09/30 10:05:40;;;;;;;5.13;2.92;;;;;;;34.99;26.10;99574.38;5110410;28;20032;-37
2022/09/30 10:08:08;;;;;;;7.18;2.50;;;;;;;34.32;26.82;99572.09;5110217;28;20457;-37
2022/09/30 10:10:44;;;;;;;4.72;2.50;;;;;;;34.53;26.26;99568.91;5109802;28;20079;-37
2022/09/30 10:13:23;;;;;;;8.57;2.70;;;;;;;34.66;25.91;99570.28;5110143;28;20047;-37
2022/09/30 10:15:54;;;;;;;5.40;2.42;;;;;;;35.00;25.54;99568.47;5111869;28;20124;-37
2022/09/30 10:18:30;;;;;;;3.83;2.45;;;;;;;35.17;25.31;99566.34;5113334;28;20032;-37
2022/09/30 10:21:07;;;;;;;6.28;2.60;;;;;;;35.66;25.29;99562.63;5113582;28;20157;-37
2022/09/30 10:23:39;;;;;;;3.83;2.70;;;;;;;36.15;24.56;99558.81;5113683;28;20051;-36
2022/09/30 10:26:14;;;;;;;6.20;2.47;;;;;;;36.64;23.94;99561.66;5113507;28;20031;-37
2022/09/30 10:29:03;;;;;;;5.45;2.50;;;;;;;36.72;23.49;99558.56;5113582;28;20023;-38
2022/09/30 10:31:31;;;;;;;;;;;;;;;36.08;24.51;99553.25;5114177;28;20039;-36
2022/09/30 10:34:00;;;;;;;4.60;2.50;;;;;;;36.41;24.11;99557.13;5113692;28;20056;-37
2022/09/30 10:36:32;;;;;;;5.32;2.35;;;;;;;36.23;23.00;99545.88;5113316;28;20486;-36
2022/09/30 10:39:25;;;;;;;5.70;2.50;;;;;;;35.19;24.77;99544.69;5113187;28;20147;-36
2022/09/30 10:42:09;;;;;;;3.92;2.60;;;;;;;34.47;25.39;99552.63;5112812;27;20087;-36
2022/09/30 10:44:43;;;;;;;5.25;2.50;;;;;;;34.63;25.03;99546.97;5112856;28;20147;-37
2022/09/30 10:47:14;;;;;;;6.53;2.70;;;;;;;34.37;25.28;99544.19;5113306;28;20028;-37
2022/09/30 10:49:50;;;;;;;7.15;2.42;;;;;;;34.48;25.40;99542.38;5113238;28;20057;-37
2022/09/30 10:52:23;;;;;;;5.15;2.80;;;;;;;34.75;25.36;99543.22;5113643;28;20174;-37
2022/09/30 10:54:53;;;;;;;4.43;2.78;;;;;;;35.18;24.28;99541.09;5113136;28;20114;-41
2022/09/30 10:57:32;;;;;;;4.22;2.30;;;;;;;35.45;23.88;99532.72;5113443;28;20027;-37
2022/09/30 11:00:05;;;;;;;5.07;2.53;;;;;;;35.67;23.97;99533.00;5113011;28;20043;-37
2022/09/30 11:02:42;;;;;;;3.35;2.40;;;;;;;35.54;24.23;99532.47;5112535;28;20023;-37
2022/09/30 11:05:21;;;;;;;6.03;2.80;;;;;;;34.30;25.69;99530.25;5112936;28;20491;-36
2022/09/30 11:08:09;;;;;;;6.45;2.95;;;;;;;33.27;26.66;99531.41;5112714;28;20091;-37
2022/09/30 11:11:04;;;;;;;5.50;2.53;;;;;;;33.47;26.90;99534.97;5102244;28;20122;-37
2022/09/30 11:13:45;;;;;;;4.35;2.63;;;;;;;33.96;26.12;99530.00;5113624;28;20396;-37
2022/09/30 11:16:31;;;;;;;7.43;2.55;;;;;;;34.65;25.04;99533.59;5113402;28;20103;-37
2022/09/30 11:19:06;;;;;;;4.55;2.60;;;;;;;34.55;25.63;99527.88;5113361;27;20510;-37
2022/09/30 11:21:47;;;;;;;4.70;2.92;;;;;;;35.39;24.72;99523.19;5113117;28;20078;-37
2022/09/30 11:24:13;;;;;;;6.25;2.72;;;;;;;35.82;24.62;99513.44;5113758;28;20146;-37
2022/09/30 11:26:44;;;;;;;7.15;2.90;;;;;;;36.11;23.57;99516.47;5112365;28;20024;-37
2022/09/30 11:29:18;;;;;;;5.68;2.58;;;;;;;36.23;23.50;99517.38;5112586;28;20031;-37
2022/09/30 11:31:58;;;;;;;7.47;2.35;;;;;;;36.33;23.61;99519.47;5112596;28;20027;-38
2022/09/30 11:34:44;;;;;;;5.15;2.83;;;;;;;36.43;23.74;99513.19;5112501;28;20035;-38
2022/09/30 11:37:28;;;;;;;3.28;2.40;;;;;;;36.83;22.23;99514.28;5112386;28;20106;-44
2022/09/30 11:40:13;;;;;;;7.00;2.90;;;;;;;36.81;22.44;99511.13;5112397;28;20463;-44
2022/09/30 11:42:53;;;;;;;3.85;2.40;;;;;;;35.49;22.96;99505.13;5111644;28;20035;-44
2022/09/30 11:45:49;;;;;;;4.90;2.38;;;;;;;34.63;24.10;99505.53;5111772;28;20027;-45
2022/09/30 11:48:32;;;;;;;3.55;2.38;;;;;;;35.14;23.42;99503.50;5112024;28;20092;-43
2022/09/30 11:51:22;;;;;;;4.15;2.35;;;;;;;35.10;23.22;99503.44;5112041;28;20042;-44
2022/09/30 11:54:03;;;;;;;3.88;2.33;;;;;;;34.87;23.76;99498.00;5112577;28;20031;-48
2022/09/30 11:56:49;;;;;;;3.78;2.28;;;;;;;34.19;23.66;99500.47;5112140;28;20027;-45